95TA weather

Thunder Creek Airport
Utopia, Texas, United States

Public forecast

Using degrees Fahrenheit for public forecast. Weather courtesy of forecast.io.

Closest aviation weather report (METAR) to Thunder Creek Airport

Closest report is South Texas Regional Airport at Hondo, 23.0 nm (42.6 km) SE. Retrieved 2019/10/21 16:51 UTC (19 minutes ago):

KHDO 211651Z AUTO 03009KT 10SM CLR 26/03 A2994 RMK AO2 SLP121 T02560028

Closest aviation forecast (TAF) to Thunder Creek Airport

Forecast is more than 6 hours old.

Closest forecast is Lackland Air Force Base, 49.4 nm (91.6 km) ESE. Retrieved 2019/10/21 10:03 UTC (7 hours ago):

TAF KSKF 211000Z 2110/2216 34010KT 9999 VCTS SCT008 BKN020CB QNH2972INS TEMPO 2110/2112 03015G20KT 8000 -TSRA OVC015CB BECMG 2111/2112 03008KT 9999 VCSH SCT045 SCT100 QNH2968INS BECMG 2114/2115 04010KT 9999 NSW SCT050 SCT100 QNH2965INS BECMG 2123/2124 VRB06KT 9999 SKC QNH2980INS TX25/2120Z TN19/2111Z